sensor_id;sensor_type;location;lat;lon;timestamp;temperature;humidity
5980;DHT22;3016;50.308;8.258;2023-03-30T00:01:36;10.30;1.00
5980;DHT22;3016;50.308;8.258;2023-03-30T00:04:37;10.30;1.00
5980;DHT22;3016;50.308;8.258;2023-03-30T00:07:42;10.30;1.00
5980;DHT22;3016;50.308;8.258;2023-03-30T00:10:46;10.20;1.00
5980;DHT22;3016;50.308;8.258;2023-03-30T00:13:47;10.20;1.00
5980;DHT22;3016;50.308;8.258;2023-03-30T00:16:49;10.10;1.00
5980;DHT22;3016;50.308;8.258;2023-03-30T00:19:52;10.10;1.00
5980;DHT22;3016;50.308;8.258;2023-03-30T00:22:53;10.10;1.00
5980;DHT22;3016;50.308;8.258;2023-03-30T00:25:54;10.00;1.00
5980;DHT22;3016;50.308;8.258;2023-03-30T00:28:55;10.00;1.00
5980;DHT22;3016;50.308;8.258;2023-03-30T00:31:55;10.00;1.00
5980;DHT22;3016;50.308;8.258;2023-03-30T00:34:56;9.90;1.00
5980;DHT22;3016;50.308;8.258;2023-03-30T00:37:57;9.80;1.00
5980;DHT22;3016;50.308;8.258;2023-03-30T00:41:00;9.80;1.00
5980;DHT22;3016;50.308;8.258;2023-03-30T00:44:04;9.70;1.00
5980;DHT22;3016;50.308;8.258;2023-03-30T00:47:06;9.60;1.00
5980;DHT22;3016;50.308;8.258;2023-03-30T00:50:08;9.50;1.00
5980;DHT22;3016;50.308;8.258;2023-03-30T00:53:21;9.40;1.00
5980;DHT22;3016;50.308;8.258;2023-03-30T00:56:28;9.30;1.00
5980;DHT22;3016;50.308;8.258;2023-03-30T00:59:30;9.20;1.00
5980;DHT22;3016;50.308;8.258;2023-03-30T01:02:32;9.10;1.00
5980;DHT22;3016;50.308;8.258;2023-03-30T01:05:38;9.00;1.00
5980;DHT22;3016;50.308;8.258;2023-03-30T01:08:40;8.90;1.00
5980;DHT22;3016;50.308;8.258;2023-03-30T01:11:43;8.90;1.00
5980;DHT22;3016;50.308;8.258;2023-03-30T01:14:44;8.90;1.00
5980;DHT22;3016;50.308;8.258;2023-03-30T01:18:09;8.80;1.00
5980;DHT22;3016;50.308;8.258;2023-03-30T01:28:49;8.90;1.00
5980;DHT22;3016;50.308;8.258;2023-03-30T01:32:39;9.00;1.00
5980;DHT22;3016;50.308;8.258;2023-03-30T01:39:53;9.10;1.00
5980;DHT22;3016;50.308;8.258;2023-03-30T01:46:22;9.20;1.00
5980;DHT22;3016;50.308;8.258;2023-03-30T01:57:05;9.30;1.00
5980;DHT22;3016;50.308;8.258;2023-03-30T02:00:12;9.30;1.00
5980;DHT22;3016;50.308;8.258;2023-03-30T02:03:18;9.40;1.00
5980;DHT22;3016;50.308;8.258;2023-03-30T02:06:28;9.40;1.00
5980;DHT22;3016;50.308;8.258;2023-03-30T02:09:39;9.30;1.00
5980;DHT22;3016;50.308;8.258;2023-03-30T02:12:41;9.30;1.00
5980;DHT22;3016;50.308;8.258;2023-03-30T02:15:47;9.40;1.00
5980;DHT22;3016;50.308;8.258;2023-03-30T02:18:51;9.40;1.00
5980;DHT22;3016;50.308;8.258;2023-03-30T02:21:54;9.50;1.00
5980;DHT22;3016;50.308;8.258;2023-03-30T02:24:56;9.50;1.00
5980;DHT22;3016;50.308;8.258;2023-03-30T02:27:59;9.60;1.00
5980;DHT22;3016;50.308;8.258;2023-03-30T02:31:00;9.60;1.00
5980;DHT22;3016;50.308;8.258;2023-03-30T02:34:13;9.60;1.00
5980;DHT22;3016;50.308;8.258;2023-03-30T02:44:15;9.70;1.00
5980;DHT22;3016;50.308;8.258;2023-03-30T02:50:57;10.30;1.00
5980;DHT22;3016;50.308;8.258;2023-03-30T02:54:16;10.30;1.00
5980;DHT22;3016;50.308;8.258;2023-03-30T02:57:41;10.40;1.00
5980;DHT22;3016;50.308;8.258;2023-03-30T03:00:55;10.40;1.00
5980;DHT22;3016;50.308;8.258;2023-03-30T03:04:10;10.30;1.00
5980;DHT22;3016;50.308;8.258;2023-03-30T03:07:12;10.30;1.00
5980;DHT22;3016;50.308;8.258;2023-03-30T03:10:13;10.20;1.00
5980;DHT22;3016;50.308;8.258;2023-03-30T03:13:14;10.20;1.00
5980;DHT22;3016;50.308;8.258;2023-03-30T03:16:15;10.20;1.00
5980;DHT22;3016;50.308;8.258;2023-03-30T03:19:16;10.40;1.00
5980;DHT22;3016;50.308;8.258;2023-03-30T03:22:17;11.00;1.00
5980;DHT22;3016;50.308;8.258;2023-03-30T03:25:18;12.30;1.00
5980;DHT22;3016;50.308;8.258;2023-03-30T03:28:18;13.20;1.00
5980;DHT22;3016;50.308;8.258;2023-03-30T03:31:19;13.20;1.00
5980;DHT22;3016;50.308;8.258;2023-03-30T03:34:21;12.90;1.00
5980;DHT22;3016;50.308;8.258;2023-03-30T03:37:21;12.60;1.00
5980;DHT22;3016;50.308;8.258;2023-03-30T03:40:22;12.50;1.00
5980;DHT22;3016;50.308;8.258;2023-03-30T03:43:24;12.30;1.00
5980;DHT22;3016;50.308;8.258;2023-03-30T03:46:25;12.30;1.00
5980;DHT22;3016;50.308;8.258;2023-03-30T03:49:25;12.20;1.00
5980;DHT22;3016;50.308;8.258;2023-03-30T03:52:26;12.20;1.00
5980;DHT22;3016;50.308;8.258;2023-03-30T03:55:27;12.20;1.00
5980;DHT22;3016;50.308;8.258;2023-03-30T03:58:28;12.20;1.00
5980;DHT22;3016;50.308;8.258;2023-03-30T04:01:30;12.30;1.00
5980;DHT22;3016;50.308;8.258;2023-03-30T04:04:31;12.20;1.00
5980;DHT22;3016;50.308;8.258;2023-03-30T04:07:32;12.20;1.00
5980;DHT22;3016;50.308;8.258;2023-03-30T04:10:37;12.20;1.00
5980;DHT22;3016;50.308;8.258;2023-03-30T04:13:39;12.20;1.00
5980;DHT22;3016;50.308;8.258;2023-03-30T04:16:40;12.20;1.00
5980;DHT22;3016;50.308;8.258;2023-03-30T04:19:40;12.30;1.00
5980;DHT22;3016;50.308;8.258;2023-03-30T04:22:41;12.30;1.00
5980;DHT22;3016;50.308;8.258;2023-03-30T04:25:42;12.30;1.00
5980;DHT22;3016;50.308;8.258;2023-03-30T04:28:45;12.30;1.00
5980;DHT22;3016;50.308;8.258;2023-03-30T04:31:46;12.30;1.00
5980;DHT22;3016;50.308;8.258;2023-03-30T04:34:46;12.50;1.00
5980;DHT22;3016;50.308;8.258;2023-03-30T04:37:47;12.50;1.00
5980;DHT22;3016;50.308;8.258;2023-03-30T04:40:51;12.40;1.00
5980;DHT22;3016;50.308;8.258;2023-03-30T04:43:52;12.40;1.00
5980;DHT22;3016;50.308;8.258;2023-03-30T04:46:53;12.40;1.00
5980;DHT22;3016;50.308;8.258;2023-03-30T04:49:53;12.40;1.00
5980;DHT22;3016;50.308;8.258;2023-03-30T04:52:54;12.30;1.00
5980;DHT22;3016;50.308;8.258;2023-03-30T04:55:55;12.30;1.00
5980;DHT22;3016;50.308;8.258;2023-03-30T04:58:56;12.30;1.00
5980;DHT22;3016;50.308;8.258;2023-03-30T05:01:56;12.40;1.00
5980;DHT22;3016;50.308;8.258;2023-03-30T05:04:57;12.50;1.00
5980;DHT22;3016;50.308;8.258;2023-03-30T05:07:58;12.50;1.00
5980;DHT22;3016;50.308;8.258;2023-03-30T05:11:00;12.50;1.00
5980;DHT22;3016;50.308;8.258;2023-03-30T05:14:04;12.50;1.00
5980;DHT22;3016;50.308;8.258;2023-03-30T05:17:05;12.50;1.00
5980;DHT22;3016;50.308;8.258;2023-03-30T05:20:06;12.50;1.00
5980;DHT22;3016;50.308;8.258;2023-03-30T05:23:10;12.50;1.00
5980;DHT22;3016;50.308;8.258;2023-03-30T05:26:10;12.40;1.00
5980;DHT22;3016;50.308;8.258;2023-03-30T05:29:11;12.30;1.00
5980;DHT22;3016;50.308;8.258;2023-03-30T05:32:12;12.30;1.00
5980;DHT22;3016;50.308;8.258;2023-03-30T05:35:13;12.20;1.00
5980;DHT22;3016;50.308;8.258;2023-03-30T05:38:13;12.30;1.00
5980;DHT22;3016;50.308;8.258;2023-03-30T05:41:14;12.30;1.00
5980;DHT22;3016;50.308;8.258;2023-03-30T05:44:16;12.20;1.00
5980;DHT22;3016;50.308;8.258;2023-03-30T05:47:17;12.20;1.00
5980;DHT22;3016;50.308;8.258;2023-03-30T05:50:18;12.20;1.00
5980;DHT22;3016;50.308;8.258;2023-03-30T05:53:18;12.20;1.00
5980;DHT22;3016;50.308;8.258;2023-03-30T05:56:19;12.20;1.00
5980;DHT22;3016;50.308;8.258;2023-03-30T05:59:21;12.20;1.00
5980;DHT22;3016;50.308;8.258;2023-03-30T06:02:21;12.20;1.00
5980;DHT22;3016;50.308;8.258;2023-03-30T06:05:22;12.30;1.00
5980;DHT22;3016;50.308;8.258;2023-03-30T06:08:24;12.40;1.00
5980;DHT22;3016;50.308;8.258;2023-03-30T06:11:26;12.50;1.00
5980;DHT22;3016;50.308;8.258;2023-03-30T06:14:27;12.60;1.00
5980;DHT22;3016;50.308;8.258;2023-03-30T06:17:28;12.80;1.00
5980;DHT22;3016;50.308;8.258;2023-03-30T06:20:29;13.00;1.00
5980;DHT22;3016;50.308;8.258;2023-03-30T06:23:29;13.10;1.00
5980;DHT22;3016;50.308;8.258;2023-03-30T06:26:30;13.20;1.00
5980;DHT22;3016;50.308;8.258;2023-03-30T06:29:31;13.40;1.00
5980;DHT22;3016;50.308;8.258;2023-03-30T06:32:32;13.30;1.00
5980;DHT22;3016;50.308;8.258;2023-03-30T06:35:32;13.30;1.00
5980;DHT22;3016;50.308;8.258;2023-03-30T06:38:33;13.20;1.00
5980;DHT22;3016;50.308;8.258;2023-03-30T06:41:34;13.20;1.00
5980;DHT22;3016;50.308;8.258;2023-03-30T06:44:34;13.10;1.00
5980;DHT22;3016;50.308;8.258;2023-03-30T06:47:36;13.00;1.00
5980;DHT22;3016;50.308;8.258;2023-03-30T06:50:36;13.00;1.00
5980;DHT22;3016;50.308;8.258;2023-03-30T06:53:38;13.00;1.00
5980;DHT22;3016;50.308;8.258;2023-03-30T06:56:38;12.90;1.00
5980;DHT22;3016;50.308;8.258;2023-03-30T06:59:39;13.00;1.00
5980;DHT22;3016;50.308;8.258;2023-03-30T07:02:40;13.00;1.00
5980;DHT22;3016;50.308;8.258;2023-03-30T07:05:41;13.10;1.00
5980;DHT22;3016;50.308;8.258;2023-03-30T07:08:42;13.10;1.00
5980;DHT22;3016;50.308;8.258;2023-03-30T07:11:43;13.20;1.00
5980;DHT22;3016;50.308;8.258;2023-03-30T07:14:44;13.20;1.00
5980;DHT22;3016;50.308;8.258;2023-03-30T07:17:45;13.30;1.00
5980;DHT22;3016;50.308;8.258;2023-03-30T07:20:46;13.30;1.00
5980;DHT22;3016;50.308;8.258;2023-03-30T07:23:46;13.30;1.00
5980;DHT22;3016;50.308;8.258;2023-03-30T07:26:47;13.40;1.00
5980;DHT22;3016;50.308;8.258;2023-03-30T07:29:48;13.50;1.00
5980;DHT22;3016;50.308;8.258;2023-03-30T07:32:49;13.50;1.00
5980;DHT22;3016;50.308;8.258;2023-03-30T07:35:49;13.50;1.00
5980;DHT22;3016;50.308;8.258;2023-03-30T07:38:50;13.50;1.00
5980;DHT22;3016;50.308;8.258;2023-03-30T07:41:51;13.60;1.00
5980;DHT22;3016;50.308;8.258;2023-03-30T07:44:51;13.60;1.00
5980;DHT22;3016;50.308;8.258;2023-03-30T07:47:52;13.60;1.00
5980;DHT22;3016;50.308;8.258;2023-03-30T07:51:04;13.60;1.00
5980;DHT22;3016;50.308;8.258;2023-03-30T07:54:07;13.60;1.00
5980;DHT22;3016;50.308;8.258;2023-03-30T07:57:12;13.70;1.00
5980;DHT22;3016;50.308;8.258;2023-03-30T08:00:13;13.70;1.00
5980;DHT22;3016;50.308;8.258;2023-03-30T08:03:14;13.80;1.00
5980;DHT22;3016;50.308;8.258;2023-03-30T08:06:15;13.80;1.00
5980;DHT22;3016;50.308;8.258;2023-03-30T08:09:16;13.90;1.00
5980;DHT22;3016;50.308;8.258;2023-03-30T08:12:17;13.90;1.00
5980;DHT22;3016;50.308;8.258;2023-03-30T08:15:17;14.00;1.00
5980;DHT22;3016;50.308;8.258;2023-03-30T08:18:19;14.20;1.00
5980;DHT22;3016;50.308;8.258;2023-03-30T08:21:21;14.50;1.00
5980;DHT22;3016;50.308;8.258;2023-03-30T08:24:24;14.70;1.00
5980;DHT22;3016;50.308;8.258;2023-03-30T08:27:25;14.80;1.00
5980;DHT22;3016;50.308;8.258;2023-03-30T08:30:26;14.80;1.00
5980;DHT22;3016;50.308;8.258;2023-03-30T08:33:27;14.90;1.00
5980;DHT22;3016;50.308;8.258;2023-03-30T08:36:28;14.90;1.00
5980;DHT22;3016;50.308;8.258;2023-03-30T08:39:29;15.10;1.00
5980;DHT22;3016;50.308;8.258;2023-03-30T08:42:47;15.20;1.00
5980;DHT22;3016;50.308;8.258;2023-03-30T08:46:14;15.30;1.00
5980;DHT22;3016;50.308;8.258;2023-03-30T08:49:18;15.30;1.00
5980;DHT22;3016;50.308;8.258;2023-03-30T08:52:22;15.20;1.00
5980;DHT22;3016;50.308;8.258;2023-03-30T09:02:31;14.50;1.00
5980;DHT22;3016;50.308;8.258;2023-03-30T09:05:44;14.30;1.00
5980;DHT22;3016;50.308;8.258;2023-03-30T09:09:26;14.10;1.00
5980;DHT22;3016;50.308;8.258;2023-03-30T09:15:45;14.00;1.00
5980;DHT22;3016;50.308;8.258;2023-03-30T09:18:54;13.90;1.00
5980;DHT22;3016;50.308;8.258;2023-03-30T09:21:58;13.90;1.00
5980;DHT22;3016;50.308;8.258;2023-03-30T09:25:04;13.90;1.00
5980;DHT22;3016;50.308;8.258;2023-03-30T09:28:30;13.90;1.00
5980;DHT22;3016;50.308;8.258;2023-03-30T09:31:43;13.80;1.00
5980;DHT22;3016;50.308;8.258;2023-03-30T09:34:46;13.80;1.00
5980;DHT22;3016;50.308;8.258;2023-03-30T09:38:18;13.80;1.00
5980;DHT22;3016;50.308;8.258;2023-03-30T09:44:57;14.20;1.00
5980;DHT22;3016;50.308;8.258;2023-03-30T09:48:07;14.30;1.00
5980;DHT22;3016;50.308;8.258;2023-03-30T09:51:23;14.40;1.00
5980;DHT22;3016;50.308;8.258;2023-03-30T09:54:36;14.50;1.00
5980;DHT22;3016;50.308;8.258;2023-03-30T13:18:20;12.20;1.00
5980;DHT22;3016;50.308;8.258;2023-03-30T13:21:24;12.00;1.00
5980;DHT22;3016;50.308;8.258;2023-03-30T13:27:35;13.00;1.00
5980;DHT22;3016;50.308;8.258;2023-03-30T13:30:37;13.70;1.00
5980;DHT22;3016;50.308;8.258;2023-03-30T13:33:40;14.60;1.00
5980;DHT22;3016;50.308;8.258;2023-03-30T13:50:54;13.70;1.00
5980;DHT22;3016;50.308;8.258;2023-03-30T13:54:28;13.40;1.00
5980;DHT22;3016;50.308;8.258;2023-03-30T13:57:40;13.20;1.00
5980;DHT22;3016;50.308;8.258;2023-03-30T14:35:52;17.20;1.00
5980;DHT22;3016;50.308;8.258;2023-03-30T14:39:27;17.30;1.00
5980;DHT22;3016;50.308;8.258;2023-03-30T14:42:37;17.20;1.00
5980;DHT22;3016;50.308;8.258;2023-03-30T15:40:47;16.80;1.00
5980;DHT22;3016;50.308;8.258;2023-03-30T15:54:33;16.90;1.00
5980;DHT22;3016;50.308;8.258;2023-03-30T15:58:01;16.50;1.00
5980;DHT22;3016;50.308;8.258;2023-03-30T16:01:08;16.10;1.00
